createdAt,value
2019-04-22T00:02:08.937Z,50.97
2019-04-22T00:04:49.881Z,47.43
2019-04-22T00:07:30.743Z,46.97
2019-04-22T00:10:09.661Z,61.53
2019-04-22T00:12:37.238Z,63.97
2019-04-22T00:15:01.925Z,51.53
2019-04-22T00:17:40.187Z,43.13
2019-04-22T00:22:32.687Z,43.43
2019-04-22T00:25:10.395Z,40.43
2019-04-22T00:27:42.829Z,35.37
2019-04-22T00:30:15.505Z,37.00
2019-04-22T00:32:41.754Z,33.67
2019-04-22T00:35:13.262Z,34.77
2019-04-22T00:37:49.283Z,40.47
2019-04-22T00:40:25.269Z,44.70
2019-04-22T00:42:47.612Z,41.10
2019-04-22T00:45:19.338Z,40.10
2019-04-22T00:47:43.774Z,61.37
2019-04-22T00:53:15.256Z,39.10
2019-04-22T00:57:54.237Z,38.00
2019-04-22T01:00:27.785Z,33.33
2019-04-22T01:02:59.254Z,32.20
2019-04-22T01:05:27.761Z,29.43
2019-04-22T01:08:04.385Z,30.83
2019-04-22T01:10:25.862Z,33.13
2019-04-22T01:12:58.399Z,35.00
2019-04-22T01:15:30.401Z,35.93
2019-04-22T01:17:57.831Z,36.67
2019-04-22T01:20:54.306Z,31.10
2019-04-22T01:23:00.673Z,31.47
2019-04-22T01:25:26.392Z,31.50
2019-04-22T01:27:53.074Z,34.17
2019-04-22T01:30:20.661Z,36.10
2019-04-22T01:32:43.973Z,34.60
2019-04-22T01:35:26.434Z,36.37
2019-04-22T01:37:54.419Z,40.20
2019-04-22T01:40:40.499Z,44.07
2019-04-22T01:43:08.673Z,54.53
2019-04-22T01:45:41.421Z,63.37
2019-04-22T01:48:11.162Z,38.27
2019-04-22T01:50:41.075Z,41.70
2019-04-22T01:53:12.687Z,36.63
2019-04-22T01:55:45.510Z,27.67
2019-04-22T01:58:08.217Z,25.00
2019-04-22T02:06:03.634Z,26.73
2019-04-22T02:08:37.916Z,24.17
2019-04-22T02:11:00.760Z,26.53
2019-04-22T02:13:30.709Z,25.60
2019-04-22T02:16:23.118Z,23.87
2019-04-22T02:18:39.319Z,25.77
2019-04-22T02:21:01.710Z,31.97
2019-04-22T02:28:45.800Z,24.50
2019-04-22T02:34:01.289Z,27.83
2019-04-22T02:36:30.041Z,29.63
2019-04-22T02:41:22.725Z,27.57
2019-04-22T03:04:09.395Z,24.57
2019-04-22T03:06:34.948Z,23.97
2019-04-22T03:14:04.735Z,24.80
2019-04-22T03:16:37.521Z,26.10
2019-04-22T03:19:16.964Z,23.90
2019-04-22T03:21:44.178Z,25.33
2019-04-22T03:26:45.347Z,25.87
2019-04-22T03:29:32.988Z,24.90
2019-04-22T03:35:09.782Z,25.17
2019-04-22T03:44:32.218Z,43.10
2019-04-22T03:49:38.935Z,36.87
2019-04-22T03:59:31.800Z,35.53
2019-04-22T04:02:10.629Z,33.97
2019-04-22T04:04:35.981Z,45.23
2019-04-22T04:07:11.562Z,39.60
2019-04-22T04:12:03.580Z,36.03
2019-04-22T04:14:38.040Z,34.33
2019-04-22T04:17:20.690Z,35.33
2019-04-22T04:25:08.365Z,35.97
2019-04-22T04:32:30.731Z,42.03
2019-04-22T04:37:28.214Z,41.27
2019-04-22T04:42:30.007Z,42.17
2019-04-22T04:44:59.215Z,44.40
2019-04-22T04:47:29.506Z,52.70
2019-04-22T04:54:48.423Z,40.40
2019-04-22T04:57:23.472Z,40.47
2019-04-22T05:02:20.454Z,40.47
2019-04-22T05:09:54.974Z,42.70
2019-04-22T05:12:39.575Z,48.97
2019-04-22T05:14:55.017Z,48.60
2019-04-22T05:17:25.637Z,45.10
2019-04-22T05:19:59.048Z,52.20
2019-04-22T05:22:21.380Z,58.23
2019-04-22T05:24:51.919Z,62.03
2019-04-22T05:27:29.133Z,60.77
2019-04-22T05:30:08.817Z,72.63
2019-04-22T05:32:24.527Z,112.83
2019-04-22T05:34:52.902Z,79.93
2019-04-22T05:40:06.606Z,35.17
2019-04-22T05:42:34.285Z,37.47
2019-04-22T05:44:55.447Z,40.63
2019-04-22T05:47:30.753Z,38.93
2019-04-22T05:49:56.308Z,47.23
2019-04-22T05:52:26.617Z,26.40
2019-04-22T05:55:06.606Z,34.13
2019-04-22T05:57:31.048Z,34.23
2019-04-22T06:00:01.239Z,40.90
2019-04-22T06:02:39.769Z,52.03
2019-04-22T06:05:06.649Z,35.47
2019-04-22T06:07:32.448Z,40.00
2019-04-22T06:10:06.792Z,85.40
2019-04-22T06:12:26.514Z,80.57
2019-04-22T06:15:05.062Z,54.87
2019-04-22T06:17:39.019Z,58.23
2019-04-22T06:20:10.489Z,35.40
2019-04-22T06:22:48.664Z,32.33
2019-04-22T06:25:39.112Z,32.03
2019-04-22T06:27:42.973Z,26.53
2019-04-22T06:30:15.647Z,27.30
2019-04-22T06:32:42.175Z,29.87
2019-04-22T06:35:24.985Z,27.17
2019-04-22T06:38:06.789Z,21.83
2019-04-22T06:40:20.794Z,22.23
2019-04-22T06:42:52.585Z,20.32
2019-04-22T06:45:18.912Z,23.07
2019-04-22T06:47:59.146Z,22.35
2019-04-22T06:50:16.625Z,22.22
2019-04-22T06:52:54.553Z,22.00
2019-04-22T06:55:23.275Z,19.35
2019-04-22T06:57:45.270Z,20.17
2019-04-22T07:00:22.544Z,36.65
2019-04-22T07:03:13.271Z,33.25
2019-04-22T07:05:21.990Z,37.45
2019-04-22T07:07:53.425Z,27.37
2019-04-22T07:12:53.942Z,22.22
2019-04-22T07:15:35.755Z,22.42
2019-04-22T07:17:58.294Z,24.10
2019-04-22T07:20:24.160Z,19.55
2019-04-22T07:22:59.953Z,20.32
2019-04-22T07:25:24.995Z,16.90
2019-04-22T07:28:13.825Z,14.15
2019-04-22T07:30:28.090Z,15.53
2019-04-22T07:33:11.554Z,12.65
2019-04-22T07:35:40.175Z,13.62
2019-04-22T07:37:54.265Z,9.30
2019-04-22T07:40:37.289Z,7.60
2019-04-22T07:43:04.329Z,8.60
2019-04-22T07:45:39.160Z,9.95
2019-04-22T07:48:11.259Z,12.70
2019-04-22T07:53:05.446Z,13.28
2019-04-22T07:55:32.615Z,13.83
2019-04-22T07:58:05.434Z,17.12
2019-04-22T08:04:00.051Z,11.22
2019-04-22T08:06:17.252Z,11.22
2019-04-22T08:08:47.052Z,11.88
2019-04-22T08:11:31.141Z,11.90
2019-04-22T08:13:49.822Z,11.88
2019-04-22T08:16:16.357Z,11.33
2019-04-22T08:18:45.835Z,10.05
2019-04-22T08:21:16.724Z,12.93
2019-04-22T08:23:50.991Z,9.58
2019-04-22T08:26:19.533Z,11.75
2019-04-22T08:28:51.792Z,11.35
2019-04-22T08:31:20.522Z,9.25
2019-04-22T08:34:00.332Z,9.70
2019-04-22T08:36:30.527Z,13.38
2019-04-22T08:41:32.701Z,9.93
2019-04-22T08:44:02.331Z,11.78
2019-04-22T08:54:11.875Z,12.98
2019-04-22T08:56:32.450Z,11.80
2019-04-22T08:59:12.257Z,11.25
2019-04-22T09:01:29.646Z,7.30
2019-04-22T09:04:02.555Z,15.70
2019-04-22T09:16:37.713Z,10.90
2019-04-22T09:19:10.799Z,7.62
2019-04-22T09:26:36.181Z,10.05
2019-04-22T09:29:14.314Z,8.28
2019-04-22T09:31:39.153Z,12.37
2019-04-22T09:34:06.524Z,10.63
2019-04-22T09:36:44.001Z,9.20
2019-04-22T09:39:09.261Z,7.72
2019-04-22T09:41:43.042Z,8.20
2019-04-22T09:44:08.059Z,8.73
2019-04-22T09:46:45.532Z,11.60
2019-04-22T09:51:46.168Z,7.65
2019-04-22T09:54:26.570Z,7.83
2019-04-22T09:56:44.486Z,11.12
2019-04-22T09:59:18.894Z,7.87
2019-04-22T10:01:40.958Z,11.35
2019-04-22T10:04:14.316Z,8.43
2019-04-22T10:06:41.062Z,8.18
2019-04-22T10:09:38.096Z,7.42
2019-04-22T10:11:47.074Z,9.68
2019-04-22T10:14:19.035Z,8.03
2019-04-22T10:17:03.279Z,6.83
2019-04-22T10:19:18.409Z,5.97
2019-04-22T10:21:49.984Z,7.65
2019-04-22T10:24:30.125Z,7.85
2019-04-22T10:27:02.145Z,8.25
2019-04-22T10:29:16.991Z,7.35
2019-04-22T10:31:51.075Z,6.28
2019-04-22T10:34:09.293Z,8.20
2019-04-22T10:36:27.787Z,8.80
2019-04-22T10:38:58.040Z,6.83
2019-04-22T10:41:28.460Z,7.97
2019-04-22T10:43:57.423Z,9.47
2019-04-22T10:46:26.394Z,7.93
2019-04-22T10:48:55.376Z,9.03
2019-04-22T10:51:24.484Z,10.97
2019-04-22T10:53:53.455Z,12.37
2019-04-22T10:56:23.050Z,6.40
2019-04-22T10:58:52.941Z,6.60
2019-04-22T11:01:23.282Z,9.77
2019-04-22T11:03:53.117Z,7.13
2019-04-22T11:06:23.171Z,8.80
2019-04-22T11:08:57.492Z,8.77
2019-04-22T11:11:34.691Z,8.37
2019-04-22T11:13:53.760Z,7.30
2019-04-22T11:16:23.385Z,8.80
2019-04-22T11:18:53.571Z,9.50
2019-04-22T11:21:23.293Z,7.47
2019-04-22T11:23:52.539Z,7.20
2019-04-22T11:26:21.969Z,9.83
2019-04-22T11:28:51.742Z,8.90
2019-04-22T11:31:20.855Z,9.90
2019-04-22T11:33:50.289Z,8.17
2019-04-22T11:36:19.940Z,11.40
2019-04-22T11:38:52.993Z,8.37
2019-04-22T11:41:19.554Z,7.20
2019-04-22T11:43:49.427Z,8.87
2019-04-22T11:46:18.536Z,8.70
2019-04-22T11:48:47.717Z,9.77
2019-04-22T11:51:18.018Z,6.27
2019-04-22T11:53:47.139Z,8.83
2019-04-22T11:56:16.830Z,8.87
2019-04-22T11:58:46.967Z,8.53
2019-04-22T12:01:16.921Z,9.03
2019-04-22T12:03:46.342Z,9.17
2019-04-22T12:06:15.788Z,8.07
2019-04-22T12:08:45.931Z,8.97
2019-04-22T12:11:16.675Z,9.57
2019-04-22T12:13:46.297Z,9.33
2019-04-22T12:16:17.010Z,7.20
2019-04-22T12:18:47.235Z,10.17
2019-04-22T12:21:17.121Z,7.83
2019-04-22T12:23:47.216Z,10.97
2019-04-22T12:26:19.001Z,8.03
2019-04-22T12:28:47.130Z,6.43
2019-04-22T12:31:17.487Z,6.90
2019-04-22T12:33:47.660Z,7.27
2019-04-22T12:36:16.558Z,9.17
2019-04-22T12:38:45.423Z,9.63
2019-04-22T12:41:15.922Z,10.77
2019-04-22T12:43:45.073Z,9.00
2019-04-22T12:46:14.477Z,7.70
2019-04-22T12:48:43.765Z,13.70
2019-04-22T12:51:15.210Z,10.27
2019-04-22T12:53:44.588Z,7.23
2019-04-22T12:56:15.391Z,11.00
2019-04-22T12:58:45.597Z,8.73
2019-04-22T13:01:15.120Z,7.57
2019-04-22T13:07:13.685Z,9.43
2019-04-22T13:09:43.265Z,7.53
2019-04-22T13:12:13.142Z,10.70
2019-04-22T13:14:43.346Z,7.70
2019-04-22T13:17:14.015Z,15.03
2019-04-22T13:19:44.337Z,9.47
2019-04-22T13:22:14.640Z,8.83
2019-04-22T13:24:43.892Z,6.60
2019-04-22T13:27:13.014Z,9.97
2019-04-22T13:29:43.384Z,9.20
2019-04-22T13:32:13.175Z,7.93
2019-04-22T13:34:46.664Z,10.17
2019-04-22T13:37:12.912Z,11.30
2019-04-22T13:39:42.884Z,10.87
2019-04-22T13:42:17.604Z,9.23
2019-04-22T13:44:44.050Z,7.80
2019-04-22T13:47:30.802Z,7.83
2019-04-22T13:50:17.676Z,7.73
2019-04-22T13:52:46.346Z,6.80
2019-04-22T13:55:15.948Z,9.37
2019-04-22T13:57:33.173Z,8.37
2019-04-22T13:59:50.708Z,7.63
2019-04-22T14:02:33.126Z,7.87
2019-04-22T14:05:02.012Z,9.33
2019-04-22T14:07:30.858Z,7.83
2019-04-22T14:10:00.201Z,7.33
2019-04-22T14:12:30.487Z,8.60
2019-04-22T14:15:00.238Z,7.90
2019-04-22T14:17:29.438Z,9.53
2019-04-22T14:19:58.474Z,8.73
2019-04-22T14:22:28.369Z,10.20
2019-04-22T14:24:58.688Z,9.10
2019-04-22T14:27:37.886Z,8.63
2019-04-22T14:29:59.789Z,10.23
2019-04-22T14:32:31.697Z,9.00
2019-04-22T14:35:00.675Z,10.20
2019-04-22T14:37:29.933Z,9.33
2019-04-22T14:40:00.127Z,11.13
2019-04-22T14:42:51.788Z,8.90
2019-04-22T14:48:01.140Z,8.90
2019-04-22T14:50:22.378Z,10.27
2019-04-22T14:52:52.343Z,9.83
2019-04-22T14:55:11.347Z,8.37
2019-04-22T14:57:35.770Z,8.93
2019-04-22T15:00:08.121Z,9.20
2019-04-22T15:02:39.528Z,8.80
2019-04-22T15:05:10.116Z,7.13
2019-04-22T15:07:39.463Z,12.17
2019-04-22T15:10:10.143Z,10.63
2019-04-22T15:12:45.731Z,10.07
2019-04-22T15:15:29.263Z,10.13
2019-04-22T15:18:06.077Z,9.57
2019-04-22T15:20:54.265Z,7.27
2019-04-22T15:23:24.659Z,9.17
2019-04-22T15:25:54.745Z,8.93
2019-04-22T15:28:23.896Z,8.77
2019-04-22T15:30:53.259Z,10.03
2019-04-22T15:33:23.403Z,13.67
2019-04-22T15:35:53.567Z,10.07
2019-04-22T15:38:24.222Z,8.83
2019-04-22T15:40:54.511Z,10.53
2019-04-22T15:43:27.957Z,11.28
2019-04-22T15:45:54.960Z,10.30
2019-04-22T15:48:25.058Z,11.00
2019-04-22T15:50:54.966Z,8.70
2019-04-22T15:53:25.288Z,7.83
2019-04-22T15:55:54.716Z,10.73
2019-04-22T15:58:23.943Z,12.90
2019-04-22T16:01:03.960Z,10.73
2019-04-22T16:03:24.740Z,11.87
2019-04-22T16:05:54.401Z,14.37
2019-04-22T16:08:24.747Z,9.77
2019-04-22T16:10:53.825Z,10.77
2019-04-22T16:13:25.536Z,13.20
2019-04-22T16:15:54.727Z,13.53
2019-04-22T16:18:24.336Z,14.43
2019-04-22T16:20:54.414Z,10.40
2019-04-22T16:23:29.606Z,14.33
2019-04-22T16:26:16.166Z,12.13
2019-04-22T16:28:45.203Z,10.70
2019-04-22T16:31:15.419Z,9.53
2019-04-22T16:33:47.674Z,11.33
2019-04-22T16:36:16.501Z,8.80
2019-04-22T16:38:46.785Z,11.20
2019-04-22T16:41:17.059Z,10.60
2019-04-22T16:43:46.714Z,13.93
2019-04-22T16:46:15.963Z,11.40
2019-04-22T16:48:45.461Z,12.67
2019-04-22T16:51:15.967Z,12.07
2019-04-22T16:53:45.225Z,12.97
2019-04-22T16:56:15.185Z,12.83
2019-04-22T16:58:44.208Z,11.70
2019-04-22T17:01:16.515Z,12.30
2019-04-22T17:04:02.733Z,13.90
2019-04-22T17:06:33.286Z,15.20
2019-04-22T17:09:02.660Z,11.50
2019-04-22T17:11:31.840Z,19.13
2019-04-22T17:14:01.349Z,19.27
2019-04-22T17:16:30.673Z,15.67
2019-04-22T17:19:00.544Z,17.60
2019-04-22T17:21:29.963Z,37.90
2019-04-22T17:23:59.400Z,41.33
2019-04-22T17:26:28.642Z,34.73
2019-04-22T17:28:59.529Z,53.50
2019-04-22T17:31:28.974Z,40.50
2019-04-22T17:33:58.995Z,55.30
2019-04-22T17:36:28.049Z,56.50
2019-04-22T17:39:13.142Z,92.23
2019-04-22T17:41:45.089Z,124.73
2019-04-22T17:44:27.394Z,122.07
2019-04-22T17:46:48.341Z,127.23
2019-04-22T17:49:31.590Z,98.33
2019-04-22T17:52:16.891Z,57.20
2019-04-22T17:54:49.381Z,51.50
2019-04-22T17:57:19.296Z,43.13
2019-04-22T17:59:46.711Z,33.47
2019-04-22T18:02:21.386Z,38.27
2019-04-22T18:04:40.169Z,40.47
2019-04-22T18:10:32.458Z,41.87
2019-04-22T18:13:08.796Z,78.40
2019-04-22T18:15:30.730Z,84.57
2019-04-22T18:18:08.731Z,86.43
2019-04-22T18:20:22.617Z,76.77
2019-04-22T18:22:52.498Z,81.73
2019-04-22T18:25:26.843Z,82.27
2019-04-22T18:28:10.449Z,81.17
2019-04-22T18:30:24.294Z,120.82
2019-04-22T18:33:02.760Z,106.00
2019-04-22T18:35:33.847Z,103.10
2019-04-22T18:38:12.363Z,98.23
2019-04-22T18:40:37.074Z,80.77
2019-04-22T18:43:10.437Z,115.93
2019-04-22T18:48:02.887Z,115.80
2019-04-22T18:50:45.205Z,114.03
2019-04-22T18:53:40.328Z,105.73
2019-04-22T18:56:13.875Z,83.07
2019-04-22T18:58:36.069Z,104.65
2019-04-22T19:00:51.288Z,113.20
2019-04-22T19:03:27.406Z,112.75
2019-04-22T19:06:27.930Z,120.03
2019-04-22T19:08:45.576Z,120.33
2019-04-22T19:11:27.013Z,99.03
2019-04-22T19:16:25.541Z,87.37
2019-04-22T19:18:50.225Z,99.63
2019-04-22T19:21:16.189Z,138.27
2019-04-22T19:23:52.244Z,90.53
2019-04-22T19:26:28.822Z,87.43
2019-04-22T19:28:57.195Z,87.90
2019-04-22T19:31:34.925Z,119.37
2019-04-22T19:33:53.862Z,137.43
2019-04-22T19:36:20.423Z,127.53
2019-04-22T19:38:50.066Z,131.33
2019-04-22T19:41:24.058Z,139.10
2019-04-22T19:44:00.459Z,129.87
2019-04-22T19:46:20.966Z,136.13
2019-04-22T19:48:56.464Z,125.23
2019-04-22T19:51:32.013Z,140.20
2019-04-22T19:53:56.100Z,147.03
2019-04-22T19:56:21.107Z,131.63
2019-04-22T19:58:52.634Z,121.13
2019-04-22T20:01:27.325Z,109.33
2019-04-22T20:04:13.600Z,74.23
2019-04-22T20:06:37.797Z,61.87
2019-04-22T20:09:13.994Z,67.33
2019-04-22T20:11:41.297Z,76.07
2019-04-22T20:14:13.753Z,54.03
2019-04-22T20:16:46.625Z,65.43
2019-04-22T20:19:19.533Z,79.20
2019-04-22T20:21:40.608Z,90.07
2019-04-22T20:24:02.186Z,73.50
2019-04-22T20:26:46.953Z,70.97
2019-04-22T20:29:24.294Z,89.63
2019-04-22T20:31:46.954Z,81.30
2019-04-22T20:34:22.318Z,80.83
2019-04-22T20:36:58.099Z,65.67
2019-04-22T20:39:15.687Z,75.57
2019-04-22T20:41:41.036Z,73.20
2019-04-22T20:44:28.151Z,69.47
2019-04-22T20:46:44.813Z,64.97
2019-04-22T20:49:19.961Z,65.40
2019-04-22T20:52:00.219Z,64.50
2019-04-22T20:54:17.822Z,53.13
2019-04-22T20:56:48.221Z,66.07
2019-04-22T20:59:19.381Z,70.93
2019-04-22T21:01:52.567Z,67.63
2019-04-22T21:04:09.098Z,66.70
2019-04-22T21:06:47.330Z,60.53
2019-04-22T21:09:22.126Z,55.83
2019-04-22T21:11:49.447Z,49.97
2019-04-22T21:14:21.608Z,52.10
2019-04-22T21:16:56.340Z,54.40
2019-04-22T21:19:33.108Z,53.93
2019-04-22T21:21:57.793Z,55.43
2019-04-22T21:24:23.752Z,56.13
2019-04-22T21:26:57.081Z,56.63
2019-04-22T21:29:20.306Z,52.27
2019-04-22T21:31:54.870Z,51.73
2019-04-22T21:34:23.421Z,48.90
2019-04-22T21:37:09.212Z,42.37
2019-04-22T21:39:26.336Z,52.67
2019-04-22T21:42:03.350Z,45.20
2019-04-22T21:44:30.713Z,45.37
2019-04-22T21:47:10.457Z,46.73
2019-04-22T21:49:35.887Z,47.17
2019-04-22T21:52:06.468Z,48.30
2019-04-22T21:54:45.424Z,49.83
2019-04-22T21:57:18.912Z,48.70
2019-04-22T21:59:47.151Z,46.07
2019-04-22T22:02:25.248Z,43.53
2019-04-22T22:04:48.893Z,41.13
2019-04-22T22:07:09.861Z,39.80
2019-04-22T22:09:53.954Z,41.17
2019-04-22T22:12:17.382Z,47.57
2019-04-22T22:15:03.133Z,37.37
2019-04-22T22:17:23.303Z,28.83
2019-04-22T22:19:54.486Z,41.53
2019-04-22T22:22:42.371Z,41.03
2019-04-22T22:24:58.340Z,45.30
2019-04-22T22:27:25.095Z,40.00
2019-04-22T22:30:06.618Z,56.03
2019-04-22T22:32:32.056Z,58.03
2019-04-22T22:35:00.442Z,69.60
2019-04-22T22:37:16.999Z,71.97
2019-04-22T22:39:48.114Z,63.13
2019-04-22T22:42:10.886Z,69.27
2019-04-22T22:44:44.877Z,77.27
2019-04-22T22:47:29.791Z,85.33
2019-04-22T22:50:07.691Z,84.73
2019-04-22T22:55:06.908Z,59.23
2019-04-22T22:57:56.660Z,68.70
2019-04-22T23:00:07.987Z,58.20
2019-04-22T23:02:36.269Z,50.07
2019-04-22T23:05:09.623Z,45.50
2019-04-22T23:07:44.132Z,42.70
2019-04-22T23:10:31.693Z,39.83
2019-04-22T23:13:01.510Z,45.70
2019-04-22T23:15:40.511Z,40.67
2019-04-22T23:17:54.056Z,38.63
2019-04-22T23:20:30.256Z,44.50
2019-04-22T23:23:14.317Z,42.93
2019-04-22T23:25:44.155Z,38.67
2019-04-22T23:28:16.068Z,39.17
2019-04-22T23:30:56.782Z,36.27
2019-04-22T23:33:54.642Z,36.00
2019-04-22T23:36:25.142Z,36.23
2019-04-22T23:39:14.118Z,33.57
2019-04-22T23:41:47.567Z,34.57
2019-04-22T23:44:15.986Z,33.80
2019-04-22T23:46:38.010Z,33.17
2019-04-22T23:49:08.854Z,38.80
2019-04-22T23:51:51.208Z,34.57
2019-04-22T23:54:13.196Z,33.17
2019-04-22T23:56:39.715Z,35.40
2019-04-22T23:59:23.300Z,31.27
